Impacts METAR Board
IDs:

KPIT - Pittsburgh Intl, PA, US

Updated at: 0200 UTC 24 Apr 2019
Potential Impact None Slight Moderate High
Time 23/14Z 23/15Z 23/16Z 23/17Z 23/18Z 23/19Z 23/20Z 23/21Z 23/22Z 23/23Z 24/00Z 24/01Z 24/02Z
Temp65 69 75 76 75 68 67 71 73 72 70 68 64
Dewpt46 45 45 46 47 55 57 58 56 55 55 53 52
Altim29.97 29.93 29.91 29.87 29.85 29.86 29.84 29.83 29.83 29.83 29.83 29.85 29.87
VIS10 10 10 10 10 10 10 10 10 10 10 10 10
CIG55 250 120 55 70 65 44 250 85 47 80 250 250
CoverBKNBKNBKNBKNBKNOVCOVCBKNBKNOVCOVCOVCBKN
FltCatVFRVFRVFRVFRVFRVFRVFRVFRVFRVFRVFRVFRVFR
WX------VCTS---RA--------------
WDir190210220220250260230240240260270280310
WSpd11 13 12 17 14 12 11 17 14 12 12 15 11
WGst-- 19 26 27 29 -- -- 23 22 21 20 26 20
Raw hourly METARs
KPIT 231351Z 19011KT 10SM BKN055 BKN110 BKN250 18/08 A2997 RMK AO2 SLP154 T01830078
KPIT 231451Z 21013G19KT 10SM FEW055 SCT120 BKN250 21/07 A2993 RMK AO2 SLP139 T02060072 58012
KPIT 231551Z 22012G26KT 10SM SCT055 BKN120 BKN250 24/07 A2991 RMK AO2 PK WND 20029/1538 LTG DSNT N SLP129 T02390072
KPIT 231651Z 22017G27KT 10SM VCTS BKN055 BKN120 24/08 A2987 RMK AO2 PK WND 22027/1644 LTG DSNT N AND NE SLP118 T02440078
KPIT 231751Z 25014G29KT 10SM FEW050 BKN070 24/08 A2985 RMK AO2 PK WND 23029/1742 LTG DSNT NE SLP111 T02390083 10250 20122 56025
KPIT 231859Z 26012KT 10SM -RA BKN065 OVC085 20/13 A2986 RMK AO2 LTG DSNT E TSE58 P0000 T02000128
KPIT 231951Z 23011KT 10SM BKN044 BKN055 OVC070 19/14 A2984 RMK AO2 RAE27 TSE1858 SLP110 P0002 T01940139
KPIT 232051Z 24017G23KT 10SM FEW065 SCT080 BKN250 22/14 A2983 RMK AO2 SLP106 60003 T02170144 58007
KPIT 232151Z 24014G22KT 10SM SCT046 BKN085 BKN250 23/13 A2983 RMK AO2 PK WND 24028/2105 SLP105 T02280133
KPIT 232251Z 26012G21KT 10SM BKN047 BKN060 OVC250 22/13 A2983 RMK AO2 SLP105 T02220128
KPIT 232351Z 27012G20KT 10SM SCT049 BKN080 OVC250 21/13 A2983 RMK AO2 SLP106 60003 T02110128 10244 20189 55000
KPIT 240051Z 28015G26KT 10SM FEW045 SCT085 OVC250 20/12 A2985 RMK AO2 PK WND 28026/0042 SLP112 T02000117
KPIT 240151Z 31011G20KT 10SM FEW045 SCT085 BKN250 18/11 A2987 RMK AO2 PK WND 28026/0106 SLP117 T01780111



Page loaded:  02:51 UTC  |   07:51 PM Pacific  |   08:51 PM Mountain  |   09:51 PM Central  |   10:51 PM Eastern

 

ADVISORIES

FORECASTS

FORECASTS

OBSERVATIONS

USER TOOLS

ABOUT US